createdAt,value
2018-08-09T00:01:26.870Z,98410.89
2018-08-09T00:03:54.179Z,98407.95
2018-08-09T00:06:21.443Z,98405.77
2018-08-09T00:08:48.745Z,98408.81
2018-08-09T00:11:16.062Z,98410.86
2018-08-09T00:13:43.359Z,98412.31
2018-08-09T00:16:12.245Z,98409.95
2018-08-09T00:18:41.261Z,98417.72
2018-08-09T00:21:08.553Z,98417.34
2018-08-09T00:23:35.828Z,98420.48
2018-08-09T00:26:03.139Z,98424.98
2018-08-09T00:28:30.379Z,98423.31
2018-08-09T00:30:57.608Z,98414.70
2018-08-09T00:33:24.869Z,98419.19
2018-08-09T00:35:52.114Z,98412.25
2018-08-09T00:38:19.383Z,98416.85
2018-08-09T00:40:46.665Z,98419.90
2018-08-09T00:43:13.907Z,98414.37
2018-08-09T00:45:41.138Z,98421.86
2018-08-09T00:48:08.443Z,98421.78
2018-08-09T00:50:35.665Z,98416.73
2018-08-09T00:53:02.970Z,98410.02
2018-08-09T00:55:30.296Z,98421.27
2018-08-09T00:57:57.526Z,98415.33
2018-08-09T01:00:24.830Z,98409.98
2018-08-09T01:02:52.072Z,98406.49
2018-08-09T01:05:19.350Z,98413.20
2018-08-09T01:07:46.687Z,98418.31
2018-08-09T01:10:13.950Z,98408.81
2018-08-09T01:12:41.195Z,98414.16
2018-08-09T01:15:08.470Z,98414.52
2018-08-09T01:17:35.733Z,98417.59
2018-08-09T01:20:03.842Z,98413.23
2018-08-09T01:22:31.086Z,98415.93
2018-08-09T01:24:58.328Z,98413.74
2018-08-09T01:27:25.549Z,98413.61
2018-08-09T01:29:52.816Z,98420.64
2018-08-09T01:32:20.082Z,98419.15
2018-08-09T01:34:47.385Z,98414.58
2018-08-09T01:37:14.642Z,98414.09
2018-08-09T01:39:41.918Z,98416.68
2018-08-09T01:42:20.677Z,98409.09
2018-08-09T01:44:47.916Z,98410.25
2018-08-09T01:47:15.162Z,98406.64
2018-08-09T01:49:42.407Z,98405.88
2018-08-09T01:52:09.734Z,98401.51
2018-08-09T01:54:37.018Z,98405.71
2018-08-09T01:57:04.339Z,98408.00
2018-08-09T01:59:32.331Z,98409.83
2018-08-09T02:01:59.534Z,98419.93
2018-08-09T02:04:26.795Z,98421.16
2018-08-09T02:06:54.054Z,98417.27
2018-08-09T02:09:26.930Z,98421.95
2018-08-09T02:11:54.198Z,98425.69
2018-08-09T02:14:21.492Z,98421.86
2018-08-09T02:16:48.712Z,98414.73
2018-08-09T02:19:15.988Z,98423.86
2018-08-09T02:21:43.239Z,98420.81
2018-08-09T02:24:10.504Z,98414.52
2018-08-09T02:26:37.785Z,98417.40
2018-08-09T02:29:05.093Z,98423.28
2018-08-09T02:31:32.338Z,98427.00
2018-08-09T02:33:59.584Z,98424.64
2018-08-09T02:36:26.888Z,98427.09
2018-08-09T02:38:54.136Z,98428.38
2018-08-09T02:41:21.538Z,98427.83
2018-08-09T02:43:48.804Z,98424.38
2018-08-09T02:46:16.125Z,98422.87
2018-08-09T02:48:43.371Z,98429.55
2018-08-09T02:51:10.647Z,98426.99
2018-08-09T02:53:37.909Z,98429.19
2018-08-09T02:56:05.192Z,98428.95
2018-08-09T02:58:32.436Z,98427.97
2018-08-09T03:00:59.729Z,98432.43
2018-08-09T03:03:26.995Z,98424.91
2018-08-09T03:05:54.262Z,98419.56
2018-08-09T03:08:21.510Z,98429.08
2018-08-09T03:10:48.768Z,98426.98
2018-08-09T03:13:16.022Z,98422.78
2018-08-09T03:15:43.289Z,98422.97
2018-08-09T03:18:11.459Z,98424.11
2018-08-09T03:20:40.667Z,98426.89
2018-08-09T03:23:09.025Z,98424.34
2018-08-09T03:25:36.306Z,98422.82
2018-08-09T03:28:03.584Z,98425.13
2018-08-09T03:30:30.877Z,98419.89
2018-08-09T03:32:58.175Z,98420.91
2018-08-09T03:35:25.501Z,98431.06
2018-08-09T03:37:52.832Z,98430.94
2018-08-09T03:40:20.163Z,98432.46
2018-08-09T03:42:47.484Z,98431.86
2018-08-09T03:45:14.856Z,98430.34
2018-08-09T03:47:42.170Z,98426.34
2018-08-09T03:50:09.541Z,98432.14
2018-08-09T03:52:37.474Z,98425.89
2018-08-09T03:55:05.662Z,98432.84
2018-08-09T03:57:33.063Z,98426.44
2018-08-09T04:00:00.406Z,98432.63
2018-08-09T04:02:28.557Z,98434.91
2018-08-09T04:04:55.962Z,98436.42
2018-08-09T04:07:23.361Z,98437.44
2018-08-09T04:09:50.812Z,98436.08
2018-08-09T04:12:18.236Z,98435.12
2018-08-09T04:14:46.478Z,98423.90
2018-08-09T04:17:18.723Z,98425.33
2018-08-09T04:19:46.483Z,98428.81
2018-08-09T04:22:13.967Z,98431.83
2018-08-09T04:24:42.371Z,98439.85
2018-08-09T04:27:09.788Z,98443.91
2018-08-09T04:29:37.219Z,98446.78
2018-08-09T04:32:04.592Z,98452.04
2018-08-09T04:34:31.951Z,98449.38
2018-08-09T04:36:59.353Z,98455.02
2018-08-09T04:39:26.651Z,98457.78
2018-08-09T04:41:54.266Z,98457.49
2018-08-09T04:44:21.569Z,98454.82
2018-08-09T04:46:49.683Z,98460.27
2018-08-09T04:49:17.028Z,98462.36
2018-08-09T04:51:44.368Z,98466.03
2018-08-09T04:54:11.702Z,98458.09
2018-08-09T04:56:39.069Z,98456.23
2018-08-09T04:59:06.394Z,98458.16
2018-08-09T05:01:33.720Z,98447.41
2018-08-09T05:04:01.045Z,98459.03
2018-08-09T05:06:28.394Z,98458.55
2018-08-09T05:08:55.729Z,98455.65
2018-08-09T05:11:25.198Z,98459.17
2018-08-09T05:13:52.655Z,98455.11
2018-08-09T05:16:20.015Z,98458.66
2018-08-09T05:18:48.484Z,98455.36
2018-08-09T05:21:16.901Z,98450.21
2018-08-09T05:23:44.236Z,98454.97
2018-08-09T05:26:11.586Z,98451.92
2018-08-09T05:28:39.005Z,98451.05
2018-08-09T05:31:06.499Z,98457.42
2018-08-09T05:33:33.893Z,98450.11
2018-08-09T05:36:01.243Z,98451.08
2018-08-09T05:38:28.663Z,98445.09
2018-08-09T05:40:56.042Z,98451.22
2018-08-09T05:43:23.384Z,98450.55
2018-08-09T05:45:51.366Z,98448.94
2018-08-09T05:48:18.837Z,98457.12
2018-08-09T05:50:46.315Z,98458.88
2018-08-09T05:53:13.778Z,98454.69
2018-08-09T05:55:41.216Z,98445.41
2018-08-09T05:58:08.886Z,98443.84
2018-08-09T06:00:36.303Z,98446.48
2018-08-09T06:03:04.321Z,98448.48
2018-08-09T06:08:04.192Z,98454.95
2018-08-09T06:10:32.772Z,98458.00
2018-08-09T06:13:00.159Z,98461.09
2018-08-09T06:15:27.740Z,98452.77
2018-08-09T06:17:55.067Z,98452.77
2018-08-09T06:20:22.451Z,98453.00
2018-08-09T06:22:50.144Z,98452.25
2018-08-09T06:25:18.132Z,98456.02
2018-08-09T06:27:45.579Z,98454.41
2018-08-09T06:30:12.996Z,98453.00
2018-08-09T06:32:41.079Z,98460.83
2018-08-09T06:35:09.642Z,98456.01
2018-08-09T06:37:37.347Z,98453.83
2018-08-09T06:40:07.286Z,98452.76
2018-08-09T06:42:34.686Z,98457.41
2018-08-09T06:45:04.410Z,98447.28
2018-08-09T06:47:31.934Z,98439.35
2018-08-09T06:49:59.267Z,98444.24
2018-08-09T06:52:26.683Z,98440.05
2018-08-09T06:54:54.019Z,98437.02
2018-08-09T06:57:21.412Z,98433.13
2018-08-09T06:59:48.748Z,98430.78
2018-08-09T07:02:16.113Z,98430.60
2018-08-09T07:04:43.683Z,98429.95
2018-08-09T07:07:11.030Z,98426.88
2018-08-09T07:09:38.387Z,98427.55
2018-08-09T07:12:05.737Z,98422.44
2018-08-09T07:14:33.105Z,98412.70
2018-08-09T07:17:00.540Z,98415.00
2018-08-09T07:19:27.930Z,98409.61
2018-08-09T07:21:55.319Z,98410.44
2018-08-09T07:24:22.697Z,98410.50
2018-08-09T07:26:50.040Z,98406.36
2018-08-09T07:29:18.146Z,98402.34
2018-08-09T07:31:45.548Z,98396.43
2018-08-09T07:34:12.931Z,98398.98
2018-08-09T07:36:41.084Z,98394.85
2018-08-09T07:39:09.092Z,98401.67
2018-08-09T07:41:37.523Z,98393.30
2018-08-09T07:44:04.953Z,98382.31
2018-08-09T07:46:32.346Z,98378.08
2018-08-09T07:48:59.824Z,98374.43
2018-08-09T07:51:27.146Z,98376.42
2018-08-09T07:53:54.430Z,98369.64
2018-08-09T07:56:22.524Z,98364.16
2018-08-09T07:58:50.480Z,98361.96
2018-08-09T08:01:19.187Z,98356.98
2018-08-09T08:03:46.916Z,98359.19
2018-08-09T08:06:14.297Z,98358.34
2018-08-09T08:08:41.862Z,98350.61
2018-08-09T08:11:09.212Z,98350.58
2018-08-09T08:13:46.981Z,98342.16
2018-08-09T08:16:14.545Z,98344.96
2018-08-09T08:18:42.007Z,98341.23
2018-08-09T08:21:09.543Z,98340.14
2018-08-09T08:23:36.930Z,98335.61
2018-08-09T08:26:04.537Z,98333.62
2018-08-09T08:28:31.896Z,98331.25
2018-08-09T08:30:59.465Z,98323.57
2018-08-09T08:33:29.755Z,98324.61
2018-08-09T08:35:57.154Z,98322.92
2018-08-09T08:38:24.504Z,98315.77
2018-08-09T08:40:51.850Z,98324.23
2018-08-09T08:43:19.260Z,98317.95
2018-08-09T08:45:47.201Z,98321.45
2018-08-09T08:48:14.618Z,98324.39
2018-08-09T08:50:42.078Z,98316.77
2018-08-09T08:53:09.614Z,98313.72
2018-08-09T08:55:37.017Z,98314.92
2018-08-09T08:58:04.484Z,98298.61
2018-08-09T09:00:33.306Z,98292.38
2018-08-09T09:03:00.765Z,98285.13
2018-08-09T09:05:28.222Z,98279.31
2018-08-09T09:07:55.622Z,98275.44
2018-08-09T09:10:23.742Z,98276.37
2018-08-09T09:12:52.251Z,98274.47
2018-08-09T09:15:20.283Z,98267.75
2018-08-09T09:17:48.413Z,98262.75
2018-08-09T09:20:16.808Z,98264.92
2018-08-09T09:22:44.743Z,98261.58
2018-08-09T09:25:12.395Z,98258.75
2018-08-09T09:27:39.944Z,98250.09
2018-08-09T09:30:11.214Z,98254.28
2018-08-09T09:32:39.275Z,98245.23
2018-08-09T09:35:07.083Z,98247.98
2018-08-09T09:37:34.500Z,98245.27
2018-08-09T09:40:01.993Z,98239.32
2018-08-09T09:42:29.727Z,98229.39
2018-08-09T09:44:56.998Z,98231.13
2018-08-09T09:47:24.345Z,98224.55
2018-08-09T09:49:51.924Z,98223.47
2018-08-09T09:52:19.449Z,98219.58
2018-08-09T09:54:47.602Z,98216.83
2018-08-09T09:57:14.939Z,98210.48
2018-08-09T09:59:42.319Z,98207.81
2018-08-09T10:02:09.688Z,98208.87
2018-08-09T10:04:37.069Z,98207.78
2018-08-09T10:07:04.735Z,98209.37
2018-08-09T10:09:32.110Z,98207.43
2018-08-09T10:12:00.618Z,98195.73
2018-08-09T10:14:27.999Z,98187.00
2018-08-09T10:16:55.367Z,98182.16
2018-08-09T10:19:22.818Z,98171.28
2018-08-09T10:21:50.191Z,98164.72
2018-08-09T10:24:18.038Z,98150.00
2018-08-09T10:26:45.374Z,98148.02
2018-08-09T10:29:12.734Z,98151.05
2018-08-09T10:31:40.227Z,98152.41
2018-08-09T10:34:07.679Z,98148.10
2018-08-09T10:36:35.171Z,98140.81
2018-08-09T10:39:02.755Z,98135.08
2018-08-09T10:41:30.448Z,98137.69
2018-08-09T10:43:57.801Z,98135.00
2018-08-09T10:46:25.125Z,98126.64
2018-08-09T10:48:54.272Z,98119.66
2018-08-09T10:51:21.641Z,98117.84
2018-08-09T10:53:48.982Z,98107.45
2018-08-09T10:56:17.116Z,98111.26
2018-08-09T10:58:44.491Z,98106.38
2018-08-09T11:01:11.853Z,98100.51
2018-08-09T11:03:39.205Z,98106.89
2018-08-09T11:06:06.766Z,98099.75
2018-08-09T11:08:34.152Z,98097.44
2018-08-09T11:11:08.126Z,98094.19
2018-08-09T11:13:35.587Z,98086.78
2018-08-09T11:16:03.110Z,98074.25
2018-08-09T11:18:30.502Z,98061.77
2018-08-09T11:20:57.831Z,98062.28
2018-08-09T11:23:25.262Z,98056.59
2018-08-09T11:25:52.735Z,98053.53
2018-08-09T11:28:20.100Z,98052.92
2018-08-09T11:30:48.527Z,98045.13
2018-08-09T11:33:15.824Z,98041.35
2018-08-09T11:35:43.264Z,98038.18
2018-08-09T11:38:10.634Z,98038.12
2018-08-09T11:40:38.075Z,98033.74
2018-08-09T11:43:05.630Z,98023.75
2018-08-09T11:45:33.051Z,98022.02
2018-08-09T11:48:01.136Z,98009.14
2018-08-09T11:50:28.507Z,98004.66
2018-08-09T11:52:55.913Z,97999.14
2018-08-09T11:55:23.559Z,98001.39
2018-08-09T11:57:50.908Z,97988.23
2018-08-09T12:00:18.323Z,97992.14
2018-08-09T12:02:46.533Z,97994.89
2018-08-09T12:05:13.938Z,97992.91
2018-08-09T12:07:41.359Z,97992.98
2018-08-09T12:10:08.720Z,97987.71
2018-08-09T12:12:36.086Z,97980.34
2018-08-09T12:15:04.414Z,97977.92
2018-08-09T12:17:31.744Z,97969.56
2018-08-09T12:19:59.079Z,97973.95
2018-08-09T12:22:26.455Z,97973.73
2018-08-09T12:24:53.856Z,97954.25
2018-08-09T12:27:21.392Z,97943.63
2018-08-09T12:29:48.782Z,97938.21
2018-08-09T12:32:16.164Z,97940.68
2018-08-09T12:34:43.581Z,97938.35
2018-08-09T12:37:13.263Z,97924.45
2018-08-09T12:39:40.584Z,97923.73
2018-08-09T12:42:08.013Z,97915.21
2018-08-09T12:44:36.066Z,97915.00
2018-08-09T12:47:03.556Z,97913.86
2018-08-09T12:49:30.992Z,97908.48
2018-08-09T12:51:58.351Z,97898.21
2018-08-09T12:54:25.891Z,97907.52
2018-08-09T12:56:53.333Z,97891.56
2018-08-09T12:59:20.732Z,97897.80
2018-08-09T13:01:48.651Z,97893.44
2018-08-09T13:04:16.080Z,97891.88
2018-08-09T13:06:43.672Z,97888.80
2018-08-09T13:09:11.955Z,97891.80
2018-08-09T13:11:40.123Z,97881.57
2018-08-09T13:14:07.899Z,97876.83
2018-08-09T13:16:35.326Z,97878.07
2018-08-09T13:19:02.761Z,97874.01
2018-08-09T13:21:30.122Z,97871.05
2018-08-09T13:23:57.555Z,97870.52
2018-08-09T13:26:25.686Z,97855.36
2018-08-09T13:28:54.126Z,97855.23
2018-08-09T13:31:21.498Z,97860.72
2018-08-09T13:33:48.985Z,97846.57
2018-08-09T13:36:16.355Z,97854.12
2018-08-09T13:38:43.807Z,97844.95
2018-08-09T13:41:11.638Z,97846.55
2018-08-09T13:43:40.210Z,97834.63
2018-08-09T13:46:08.314Z,97825.41
2018-08-09T13:48:36.694Z,97821.52
2018-08-09T13:51:04.623Z,97821.80
2018-08-09T13:53:32.829Z,97815.29
2018-08-09T13:56:00.184Z,97807.93
2018-08-09T13:58:27.692Z,97801.42
2018-08-09T14:00:55.060Z,97799.61
2018-08-09T14:03:22.441Z,97799.00
2018-08-09T14:05:49.809Z,97798.81
2018-08-09T14:08:17.178Z,97798.19
2018-08-09T14:10:44.594Z,97800.35
2018-08-09T14:13:12.010Z,97796.66
2018-08-09T14:15:40.425Z,97795.72
2018-08-09T14:18:07.783Z,97793.57
2018-08-09T14:20:35.163Z,97786.22
2018-08-09T14:23:02.755Z,97793.19
2018-08-09T14:25:32.483Z,97783.27
2018-08-09T14:27:59.902Z,97778.65
2018-08-09T14:30:27.303Z,97785.65
2018-08-09T14:32:54.740Z,97774.30
2018-08-09T14:35:22.121Z,97779.80
2018-08-09T14:37:49.494Z,97775.59
2018-08-09T14:40:17.026Z,97780.51
2018-08-09T14:42:44.404Z,97771.46
2018-08-09T14:45:13.727Z,97769.81
2018-08-09T14:47:41.167Z,97767.77
2018-08-09T14:50:09.138Z,97765.45
2018-08-09T14:52:38.608Z,97772.74
2018-08-09T14:55:08.619Z,97772.48
2018-08-09T14:57:36.036Z,97763.30
2018-08-09T15:00:06.439Z,97770.52
2018-08-09T15:02:33.776Z,97777.13
2018-08-09T15:05:01.209Z,97774.13
2018-08-09T15:07:28.718Z,97775.36
2018-08-09T15:09:56.131Z,97777.43
2018-08-09T15:12:24.215Z,97777.65
2018-08-09T15:14:51.564Z,97765.80
2018-08-09T15:17:18.924Z,97762.75
2018-08-09T15:19:46.563Z,97766.94
2018-08-09T15:22:14.010Z,97766.32
2018-08-09T15:24:41.375Z,97763.44
2018-08-09T15:27:08.774Z,97761.10
2018-08-09T15:29:36.230Z,97763.31
2018-08-09T15:32:04.528Z,97764.02
2018-08-09T15:34:32.244Z,97766.48
2018-08-09T15:37:00.124Z,97759.80
2018-08-09T15:39:27.715Z,97761.47
2018-08-09T15:41:55.197Z,97753.46
2018-08-09T15:44:22.837Z,97754.19
2018-08-09T15:46:50.235Z,97761.02
2018-08-09T15:49:17.596Z,97755.83
2018-08-09T15:51:45.240Z,97755.47
2018-08-09T15:54:12.666Z,97762.84
2018-08-09T15:56:40.114Z,97768.06
2018-08-09T15:59:07.408Z,97762.52
2018-08-09T16:01:34.791Z,97760.15
2018-08-09T16:04:02.301Z,97762.20
2018-08-09T16:06:29.667Z,97765.98
2018-08-09T16:08:57.115Z,97773.58
2018-08-09T16:11:24.446Z,97773.92
2018-08-09T16:13:53.157Z,97783.75
2018-08-09T16:16:20.594Z,97791.89
2018-08-09T16:18:48.623Z,97812.45
2018-08-09T16:21:15.999Z,97894.64
2018-08-09T16:23:43.407Z,97908.18
2018-08-09T16:26:10.718Z,97891.16
2018-08-09T16:28:38.754Z,97921.53
2018-08-09T16:31:06.425Z,97933.68
2018-08-09T16:33:33.796Z,97937.41
2018-08-09T16:36:01.664Z,97946.81
2018-08-09T16:38:29.076Z,97953.59
2018-08-09T16:40:57.046Z,97962.40
2018-08-09T16:43:24.624Z,97954.16
2018-08-09T16:45:52.080Z,97955.66
2018-08-09T16:48:19.568Z,97964.45
2018-08-09T16:50:47.534Z,97976.86
2018-08-09T16:53:14.875Z,97974.70
2018-08-09T16:55:42.310Z,97982.97
2018-08-09T16:58:09.726Z,97982.07
2018-08-09T17:00:37.176Z,97976.38
2018-08-09T17:03:05.323Z,97982.31
2018-08-09T17:05:32.706Z,97971.86
2018-08-09T17:08:00.456Z,97980.72
2018-08-09T17:10:28.225Z,97986.53
2018-08-09T17:12:55.636Z,97991.40
2018-08-09T17:15:25.463Z,97991.14
2018-08-09T17:17:53.529Z,97986.88
2018-08-09T17:20:26.064Z,97990.21
2018-08-09T17:22:53.862Z,97988.23
2018-08-09T17:25:21.297Z,97980.39
2018-08-09T17:27:51.182Z,97985.75
2018-08-09T17:30:20.278Z,97998.52
2018-08-09T17:32:48.369Z,97986.75
2018-08-09T17:35:16.596Z,97989.45
2018-08-09T17:37:44.457Z,97987.64
2018-08-09T17:40:18.150Z,97981.15
2018-08-09T17:42:46.474Z,97975.44
2018-08-09T17:45:14.517Z,97970.30
2018-08-09T17:47:42.217Z,97973.22
2018-08-09T17:50:11.687Z,97971.46
2018-08-09T17:52:39.398Z,97975.82
2018-08-09T17:55:09.557Z,97977.41
2018-08-09T17:57:38.008Z,97965.94
2018-08-09T18:00:09.157Z,97958.04
2018-08-09T18:02:37.071Z,97956.94
2018-08-09T18:05:07.120Z,97954.34
2018-08-09T18:07:34.961Z,97948.76
2018-08-09T18:10:19.830Z,97948.88
2018-08-09T18:12:50.849Z,97940.35
2018-08-09T18:15:19.999Z,97938.02
2018-08-09T18:17:48.219Z,97922.72
2018-08-09T18:20:17.506Z,97918.61
2018-08-09T18:22:45.488Z,97922.00
2018-08-09T18:25:13.816Z,97918.58
2018-08-09T18:27:41.336Z,97926.23
2018-08-09T18:30:12.607Z,97920.66
2018-08-09T18:32:40.383Z,97918.47
2018-08-09T18:35:08.925Z,97929.09
2018-08-09T18:37:37.974Z,97939.67
2018-08-09T18:40:07.339Z,97943.56
2018-08-09T18:42:35.566Z,97955.18
2018-08-09T18:45:04.545Z,97958.77
2018-08-09T18:47:32.250Z,97967.69
2018-08-09T18:50:01.640Z,97967.95
2018-08-09T18:52:29.728Z,97982.47
2018-08-09T18:54:57.797Z,97984.13
2018-08-09T18:57:25.393Z,97996.47
2018-08-09T18:59:53.087Z,97992.36
2018-08-09T19:02:20.563Z,97994.92
2018-08-09T19:04:48.409Z,98003.37
2018-08-09T19:07:15.878Z,98016.48
2018-08-09T19:09:43.282Z,98036.69
2018-08-09T19:12:10.717Z,98040.31
2018-08-09T19:14:38.384Z,98046.76
2018-08-09T19:17:05.896Z,98052.84
2018-08-09T19:19:33.777Z,98066.45
2018-08-09T19:22:01.720Z,98061.98
2018-08-09T19:24:29.392Z,98064.53
2018-08-09T19:26:56.950Z,98065.00
2018-08-09T19:29:25.470Z,98070.88
2018-08-09T19:31:53.642Z,98071.08
2018-08-09T19:34:21.287Z,98076.17
2018-08-09T19:36:49.805Z,98087.64
2018-08-09T19:39:18.362Z,98085.78
2018-08-09T19:41:46.979Z,98090.02
2018-08-09T19:44:15.467Z,98089.25
2018-08-09T19:46:43.403Z,98095.53
2018-08-09T19:49:11.141Z,98091.33
2018-08-09T19:51:38.691Z,98097.78
2018-08-09T19:54:06.939Z,98101.81
2018-08-09T19:56:35.084Z,98109.33
2018-08-09T19:59:03.080Z,98117.81
2018-08-09T20:01:30.496Z,98119.91
2018-08-09T20:03:58.844Z,98125.95
2018-08-09T20:06:26.343Z,98119.69
2018-08-09T20:08:53.783Z,98124.20
2018-08-09T20:11:22.085Z,98125.69
2018-08-09T20:13:49.509Z,98133.29
2018-08-09T20:16:17.546Z,98143.74
2018-08-09T20:18:44.842Z,98148.13
2018-08-09T20:21:12.283Z,98138.89
2018-08-09T20:23:39.611Z,98149.28
2018-08-09T20:26:06.938Z,98151.22
2018-08-09T20:28:34.203Z,98157.94
2018-08-09T20:31:01.491Z,98155.52
2018-08-09T20:33:28.924Z,98167.39
2018-08-09T20:35:56.312Z,98163.61
2018-08-09T20:38:23.635Z,98167.30
2018-08-09T20:40:50.935Z,98165.13
2018-08-09T20:43:18.253Z,98170.63
2018-08-09T20:45:45.512Z,98166.34
2018-08-09T20:48:12.891Z,98173.21
2018-08-09T20:50:40.185Z,98153.34
2018-08-09T20:53:07.704Z,98174.83
2018-08-09T20:55:35.073Z,98168.73
2018-08-09T20:58:02.540Z,98171.21
2018-08-09T21:00:32.440Z,98164.23
2018-08-09T21:03:01.116Z,98169.38
2018-08-09T21:05:30.885Z,98165.86
2018-08-09T21:07:58.320Z,98170.88
2018-08-09T21:10:26.073Z,98167.83
2018-08-09T21:12:53.427Z,98169.80
2018-08-09T21:15:20.969Z,98177.00
2018-08-09T21:17:48.338Z,98188.72
2018-08-09T21:20:15.878Z,98196.28
2018-08-09T21:22:44.290Z,98201.16
2018-08-09T21:25:11.952Z,98203.39
2018-08-09T21:27:39.279Z,98215.56
2018-08-09T21:30:08.423Z,98212.29
2018-08-09T21:32:35.995Z,98206.56
2018-08-09T21:35:03.816Z,98207.88
2018-08-09T21:37:31.076Z,98209.34
2018-08-09T21:39:58.368Z,98209.83
2018-08-09T21:42:25.634Z,98215.59
2018-08-09T21:44:52.907Z,98222.39
2018-08-09T21:47:20.213Z,98223.40
2018-08-09T21:49:47.984Z,98232.52
2018-08-09T21:52:15.294Z,98241.67
2018-08-09T21:54:42.551Z,98246.67
2018-08-09T21:57:10.071Z,98259.59
2018-08-09T21:59:37.370Z,98263.48
2018-08-09T22:02:05.000Z,98280.45
2018-08-09T22:04:35.480Z,98292.15
2018-08-09T22:07:08.532Z,98299.69
2018-08-09T22:09:41.539Z,98305.77
2018-08-09T22:12:14.479Z,98300.92
2018-08-09T22:14:47.330Z,98303.45
2018-08-09T22:17:20.211Z,98317.70
2018-08-09T22:19:53.154Z,98322.69
2018-08-09T22:22:23.436Z,98326.98
2018-08-09T22:24:50.694Z,98326.59
2018-08-09T22:27:18.060Z,98322.77
2018-08-09T22:29:45.317Z,98332.72
2018-08-09T22:32:12.659Z,98330.05
2018-08-09T22:34:39.911Z,98325.66
2018-08-09T22:37:07.287Z,98331.84
2018-08-09T22:39:34.535Z,98346.91
2018-08-09T22:42:01.851Z,98351.33
2018-08-09T22:44:29.118Z,98339.23
2018-08-09T22:46:56.387Z,98350.20
2018-08-09T22:49:23.679Z,98348.95
2018-08-09T22:51:50.925Z,98347.08
2018-08-09T22:54:18.210Z,98367.05
2018-08-09T22:56:45.511Z,98362.50
2018-08-09T22:59:12.852Z,98358.97
2018-08-09T23:01:40.114Z,98362.50
2018-08-09T23:04:07.418Z,98364.33
2018-08-09T23:06:34.648Z,98371.22
2018-08-09T23:09:02.006Z,98378.72
2018-08-09T23:11:29.321Z,98373.60
2018-08-09T23:13:56.647Z,98375.02
2018-08-09T23:16:23.947Z,98377.57
2018-08-09T23:18:52.242Z,98379.63
2018-08-09T23:21:19.515Z,98382.55
2018-08-09T23:23:46.834Z,98389.10
2018-08-09T23:26:14.087Z,98385.82
2018-08-09T23:28:41.441Z,98398.95
2018-08-09T23:31:08.680Z,98405.53
2018-08-09T23:33:36.042Z,98405.53
2018-08-09T23:36:03.370Z,98421.22
2018-08-09T23:38:30.624Z,98416.18
2018-08-09T23:40:57.922Z,98423.72
2018-08-09T23:43:25.231Z,98428.57
2018-08-09T23:45:52.490Z,98432.22
2018-08-09T23:48:19.814Z,98442.61
2018-08-09T23:50:47.177Z,98439.07
2018-08-09T23:53:14.487Z,98446.07
2018-08-09T23:55:41.746Z,98451.80
2018-08-09T23:58:09.075Z,98449.77
